sensor_id;sensor_type;location;lat;lon;timestamp;pressure;altitude;pressure_sealevel;temperature;humidity
58668;BME280;59852;43.086;25.634;2023-04-15T00:01:20;98084.88;;;13.18;64.88
58668;BME280;59852;43.086;25.634;2023-04-15T00:03:45;98084.91;;;13.28;64.33
58668;BME280;59852;43.086;25.634;2023-04-15T00:06:11;98078.81;;;13.28;61.96
58668;BME280;59852;43.086;25.634;2023-04-15T00:08:37;98074.03;;;13.51;63.01
58668;BME280;59852;43.086;25.634;2023-04-15T00:11:03;98068.56;;;13.25;63.75
58668;BME280;59852;43.086;25.634;2023-04-15T00:13:30;98066.50;;;13.18;64.03
58668;BME280;59852;43.086;25.634;2023-04-15T00:15:55;98052.97;;;13.23;61.73
58668;BME280;59852;43.086;25.634;2023-04-15T00:18:21;98021.38;;;13.42;64.00
58668;BME280;59852;43.086;25.634;2023-04-15T00:20:47;98021.72;;;13.30;65.91
58668;BME280;59852;43.086;25.634;2023-04-15T00:23:12;98031.81;;;13.15;62.30
58668;BME280;59852;43.086;25.634;2023-04-15T00:25:38;98046.03;;;13.32;62.41
58668;BME280;59852;43.086;25.634;2023-04-15T00:28:03;98059.69;;;13.35;62.34
58668;BME280;59852;43.086;25.634;2023-04-15T00:30:29;98070.06;;;13.37;63.08
58668;BME280;59852;43.086;25.634;2023-04-15T00:32:55;98074.47;;;13.36;64.23
58668;BME280;59852;43.086;25.634;2023-04-15T00:35:20;98075.22;;;13.29;64.61
58668;BME280;59852;43.086;25.634;2023-04-15T00:37:46;98084.19;;;13.16;65.80
58668;BME280;59852;43.086;25.634;2023-04-15T00:40:11;98060.44;;;13.18;66.42
58668;BME280;59852;43.086;25.634;2023-04-15T00:42:38;98062.19;;;13.27;65.21
58668;BME280;59852;43.086;25.634;2023-04-15T00:45:03;98058.22;;;13.23;61.93
58668;BME280;59852;43.086;25.634;2023-04-15T00:47:29;98058.06;;;13.15;62.41
58668;BME280;59852;43.086;25.634;2023-04-15T00:49:55;98054.63;;;13.24;62.20
58668;BME280;59852;43.086;25.634;2023-04-15T00:52:22;98049.81;;;13.19;63.15
58668;BME280;59852;43.086;25.634;2023-04-15T00:54:47;98065.38;;;13.31;63.06
58668;BME280;59852;43.086;25.634;2023-04-15T00:57:12;98072.44;;;13.30;63.55
58668;BME280;59852;43.086;25.634;2023-04-15T00:59:38;98055.84;;;13.30;63.61
58668;BME280;59852;43.086;25.634;2023-04-15T01:02:03;98048.22;;;13.36;62.66
58668;BME280;59852;43.086;25.634;2023-04-15T01:04:29;98068.44;;;13.26;62.10
58668;BME280;59852;43.086;25.634;2023-04-15T01:06:55;98081.03;;;13.23;62.31
58668;BME280;59852;43.086;25.634;2023-04-15T01:09:21;98096.75;;;13.32;62.54
58668;BME280;59852;43.086;25.634;2023-04-15T01:11:46;98098.94;;;13.37;62.18
58668;BME280;59852;43.086;25.634;2023-04-15T01:14:12;98091.81;;;13.29;62.69
58668;BME280;59852;43.086;25.634;2023-04-15T01:16:37;98078.66;;;13.39;62.39
58668;BME280;59852;43.086;25.634;2023-04-15T01:19:07;98055.13;;;13.47;62.10
58668;BME280;59852;43.086;25.634;2023-04-15T01:21:35;98038.06;;;13.51;62.35
58668;BME280;59852;43.086;25.634;2023-04-15T01:24:01;98027.88;;;13.48;62.76
58668;BME280;59852;43.086;25.634;2023-04-15T01:26:26;98022.22;;;13.43;60.54
58668;BME280;59852;43.086;25.634;2023-04-15T01:28:52;98030.28;;;13.32;62.53
58668;BME280;59852;43.086;25.634;2023-04-15T01:31:17;98028.50;;;13.23;62.35
58668;BME280;59852;43.086;25.634;2023-04-15T01:33:43;98035.00;;;13.18;62.40
58668;BME280;59852;43.086;25.634;2023-04-15T01:36:08;98067.75;;;13.24;61.76
58668;BME280;59852;43.086;25.634;2023-04-15T01:38:34;98066.78;;;13.15;61.79
58668;BME280;59852;43.086;25.634;2023-04-15T01:41:00;98068.03;;;13.21;61.56
58668;BME280;59852;43.086;25.634;2023-04-15T01:43:26;98063.16;;;13.16;61.77
58668;BME280;59852;43.086;25.634;2023-04-15T01:45:52;98053.63;;;13.15;62.41
58668;BME280;59852;43.086;25.634;2023-04-15T01:48:17;98042.34;;;13.05;60.94
58668;BME280;59852;43.086;25.634;2023-04-15T01:50:43;98040.38;;;13.07;60.29
58668;BME280;59852;43.086;25.634;2023-04-15T01:53:08;98049.94;;;13.18;59.87
58668;BME280;59852;43.086;25.634;2023-04-15T01:55:34;98052.66;;;13.16;59.85
58668;BME280;59852;43.086;25.634;2023-04-15T01:57:59;98044.72;;;12.99;60.23
58668;BME280;59852;43.086;25.634;2023-04-15T02:00:25;98021.75;;;13.10;60.28
58668;BME280;59852;43.086;25.634;2023-04-15T02:02:51;97995.88;;;13.15;60.26
58668;BME280;59852;43.086;25.634;2023-04-15T02:05:16;97994.69;;;13.00;60.87
58668;BME280;59852;43.086;25.634;2023-04-15T02:07:42;98001.34;;;12.85;61.00
58668;BME280;59852;43.086;25.634;2023-04-15T02:10:07;98019.41;;;12.98;60.05
58668;BME280;59852;43.086;25.634;2023-04-15T02:12:33;98040.53;;;13.06;60.53
58668;BME280;59852;43.086;25.634;2023-04-15T02:14:58;98075.25;;;13.00;62.34
58668;BME280;59852;43.086;25.634;2023-04-15T02:17:24;98072.47;;;13.11;63.60
58668;BME280;59852;43.086;25.634;2023-04-15T02:19:49;98071.34;;;13.13;63.67
58668;BME280;59852;43.086;25.634;2023-04-15T02:22:14;98070.38;;;13.14;64.69
58668;BME280;59852;43.086;25.634;2023-04-15T02:24:42;98084.34;;;13.05;63.82
58668;BME280;59852;43.086;25.634;2023-04-15T02:27:08;98066.22;;;13.12;63.13
58668;BME280;59852;43.086;25.634;2023-04-15T02:29:33;98058.38;;;13.02;63.35
58668;BME280;59852;43.086;25.634;2023-04-15T02:31:58;98050.69;;;12.81;64.20
58668;BME280;59852;43.086;25.634;2023-04-15T02:34:24;98036.25;;;13.05;65.45
58668;BME280;59852;43.086;25.634;2023-04-15T02:36:51;98041.69;;;12.84;65.73
58668;BME280;59852;43.086;25.634;2023-04-15T02:39:20;98040.19;;;12.72;64.75
58668;BME280;59852;43.086;25.634;2023-04-15T02:41:45;98052.88;;;12.86;63.82
58668;BME280;59852;43.086;25.634;2023-04-15T02:44:15;98064.34;;;12.75;63.90
58668;BME280;59852;43.086;25.634;2023-04-15T02:46:42;98079.78;;;12.88;62.78
58668;BME280;59852;43.086;25.634;2023-04-15T02:49:08;98086.56;;;13.00;63.18
58668;BME280;59852;43.086;25.634;2023-04-15T02:51:33;98087.25;;;13.02;62.77
58668;BME280;59852;43.086;25.634;2023-04-15T02:53:59;98092.91;;;13.07;62.46
58668;BME280;59852;43.086;25.634;2023-04-15T02:56:25;98090.44;;;12.96;62.34
58668;BME280;59852;43.086;25.634;2023-04-15T02:58:51;98092.38;;;13.04;61.56
58668;BME280;59852;43.086;25.634;2023-04-15T03:01:20;98106.75;;;13.00;62.57
58668;BME280;59852;43.086;25.634;2023-04-15T03:03:46;98116.53;;;12.30;67.65
58668;BME280;59852;43.086;25.634;2023-04-15T03:06:11;98114.50;;;12.91;66.21
58668;BME280;59852;43.086;25.634;2023-04-15T03:08:36;98106.75;;;13.00;66.58
58668;BME280;59852;43.086;25.634;2023-04-15T03:11:02;98111.03;;;12.81;67.27
58668;BME280;59852;43.086;25.634;2023-04-15T03:13:27;98112.16;;;12.69;64.46
58668;BME280;59852;43.086;25.634;2023-04-15T03:15:53;98098.59;;;12.64;63.37
58668;BME280;59852;43.086;25.634;2023-04-15T03:18:18;98089.38;;;12.79;63.70
58668;BME280;59852;43.086;25.634;2023-04-15T03:20:43;98080.66;;;12.79;62.77
58668;BME280;59852;43.086;25.634;2023-04-15T03:23:09;98081.06;;;12.74;63.68
58668;BME280;59852;43.086;25.634;2023-04-15T03:25:34;98091.41;;;12.76;63.69
58668;BME280;59852;43.086;25.634;2023-04-15T03:28:02;98096.25;;;12.80;63.65
58668;BME280;59852;43.086;25.634;2023-04-15T03:30:27;98079.56;;;12.72;63.51
58668;BME280;59852;43.086;25.634;2023-04-15T03:32:52;98073.16;;;12.93;63.63
58668;BME280;59852;43.086;25.634;2023-04-15T03:35:18;98058.78;;;12.98;63.09
58668;BME280;59852;43.086;25.634;2023-04-15T03:37:43;98061.31;;;12.80;63.60
58668;BME280;59852;43.086;25.634;2023-04-15T03:40:09;98069.44;;;12.77;64.47
58668;BME280;59852;43.086;25.634;2023-04-15T03:42:34;98074.31;;;12.81;64.47
58668;BME280;59852;43.086;25.634;2023-04-15T03:45:00;98079.56;;;12.72;63.50
58668;BME280;59852;43.086;25.634;2023-04-15T03:47:25;98086.44;;;12.82;64.53
58668;BME280;59852;43.086;25.634;2023-04-15T03:49:50;98102.06;;;12.84;64.28
58668;BME280;59852;43.086;25.634;2023-04-15T03:52:16;98106.19;;;12.96;64.29
58668;BME280;59852;43.086;25.634;2023-04-15T03:54:41;98116.00;;;12.94;64.08
58668;BME280;59852;43.086;25.634;2023-04-15T03:57:06;98121.09;;;12.96;64.24
58668;BME280;59852;43.086;25.634;2023-04-15T03:59:32;98130.09;;;12.74;64.28
58668;BME280;59852;43.086;25.634;2023-04-15T04:01:57;98140.84;;;12.42;68.87
58668;BME280;59852;43.086;25.634;2023-04-15T04:04:22;98141.53;;;12.53;70.07
58668;BME280;59852;43.086;25.634;2023-04-15T04:06:48;98144.59;;;12.78;68.77
58668;BME280;59852;43.086;25.634;2023-04-15T04:09:13;98145.00;;;13.02;67.01
58668;BME280;59852;43.086;25.634;2023-04-15T04:11:38;98145.81;;;12.54;69.08
58668;BME280;59852;43.086;25.634;2023-04-15T04:14:04;98151.22;;;12.72;69.51
58668;BME280;59852;43.086;25.634;2023-04-15T04:16:29;98168.19;;;12.68;70.37
58668;BME280;59852;43.086;25.634;2023-04-15T04:18:55;98174.97;;;12.71;69.78
58668;BME280;59852;43.086;25.634;2023-04-15T04:21:20;98163.91;;;12.57;70.66
58668;BME280;59852;43.086;25.634;2023-04-15T04:23:45;98174.50;;;12.46;70.82
58668;BME280;59852;43.086;25.634;2023-04-15T04:26:11;98169.28;;;12.56;70.47
58668;BME280;59852;43.086;25.634;2023-04-15T04:28:36;98167.09;;;12.61;69.18
58668;BME280;59852;43.086;25.634;2023-04-15T04:31:03;98162.81;;;12.60;69.97
58668;BME280;59852;43.086;25.634;2023-04-15T04:33:29;98168.19;;;12.68;69.71
58668;BME280;59852;43.086;25.634;2023-04-15T04:35:54;98160.06;;;12.61;69.94
58668;BME280;59852;43.086;25.634;2023-04-15T04:38:19;98180.28;;;12.30;69.74
58668;BME280;59852;43.086;25.634;2023-04-15T04:40:45;98196.09;;;12.50;69.93
58668;BME280;59852;43.086;25.634;2023-04-15T04:43:10;98205.50;;;12.72;69.95
58668;BME280;59852;43.086;25.634;2023-04-15T04:45:36;98215.44;;;12.87;69.91
58668;BME280;59852;43.086;25.634;2023-04-15T04:48:02;98217.53;;;12.84;68.74
58668;BME280;59852;43.086;25.634;2023-04-15T04:50:30;98230.28;;;12.48;69.24
58668;BME280;59852;43.086;25.634;2023-04-15T04:52:56;98224.69;;;12.62;69.62
58668;BME280;59852;43.086;25.634;2023-04-15T04:55:21;98226.59;;;11.48;72.31
58668;BME280;59852;43.086;25.634;2023-04-15T04:57:47;98238.97;;;12.39;71.97
58668;BME280;59852;43.086;25.634;2023-04-15T05:00:12;98236.56;;;12.76;69.47
58668;BME280;59852;43.086;25.634;2023-04-15T05:02:38;98252.69;;;12.52;70.08
58668;BME280;59852;43.086;25.634;2023-04-15T05:05:03;98255.28;;;12.12;71.49
58668;BME280;59852;43.086;25.634;2023-04-15T05:07:29;98267.03;;;12.58;71.45
58668;BME280;59852;43.086;25.634;2023-04-15T05:09:54;98270.97;;;12.73;68.85
58668;BME280;59852;43.086;25.634;2023-04-15T05:12:20;98262.09;;;12.64;69.09
58668;BME280;59852;43.086;25.634;2023-04-15T05:14:45;98252.91;;;12.80;70.40
58668;BME280;59852;43.086;25.634;2023-04-15T05:17:10;98249.31;;;12.90;69.62
58668;BME280;59852;43.086;25.634;2023-04-15T05:19:36;98248.22;;;13.12;68.61
58668;BME280;59852;43.086;25.634;2023-04-15T05:22:02;98239.50;;;12.92;70.14
58668;BME280;59852;43.086;25.634;2023-04-15T05:24:27;98226.69;;;13.09;69.76
58668;BME280;59852;43.086;25.634;2023-04-15T05:26:52;98232.09;;;13.27;69.00
58668;BME280;59852;43.086;25.634;2023-04-15T05:29:18;98234.72;;;13.36;66.91
58668;BME280;59852;43.086;25.634;2023-04-15T05:31:43;98220.72;;;12.97;66.19
58668;BME280;59852;43.086;25.634;2023-04-15T05:34:08;98228.69;;;12.67;66.27
58668;BME280;59852;43.086;25.634;2023-04-15T05:36:35;98235.75;;;12.76;65.80
58668;BME280;59852;43.086;25.634;2023-04-15T05:39:01;98229.31;;;12.99;66.20
58668;BME280;59852;43.086;25.634;2023-04-15T05:41:26;98239.41;;;13.42;67.12
58668;BME280;59852;43.086;25.634;2023-04-15T05:43:51;98245.28;;;12.86;67.05
58668;BME280;59852;43.086;25.634;2023-04-15T05:46:17;98243.88;;;12.63;68.51
58668;BME280;59852;43.086;25.634;2023-04-15T05:48:42;98246.88;;;13.18;68.95
58668;BME280;59852;43.086;25.634;2023-04-15T05:51:07;98247.72;;;13.47;68.62
58668;BME280;59852;43.086;25.634;2023-04-15T05:53:33;98246.31;;;13.43;66.79
58668;BME280;59852;43.086;25.634;2023-04-15T05:55:58;98246.16;;;13.55;66.48
58668;BME280;59852;43.086;25.634;2023-04-15T05:58:24;98241.53;;;13.86;65.12
58668;BME280;59852;43.086;25.634;2023-04-15T06:00:49;98244.38;;;14.12;64.92
58668;BME280;59852;43.086;25.634;2023-04-15T06:03:15;98248.66;;;14.13;63.37
58668;BME280;59852;43.086;25.634;2023-04-15T06:05:40;98251.78;;;13.98;64.15
58668;BME280;59852;43.086;25.634;2023-04-15T06:08:06;98257.91;;;13.80;64.76
58668;BME280;59852;43.086;25.634;2023-04-15T06:10:33;98252.41;;;13.34;66.09
58668;BME280;59852;43.086;25.634;2023-04-15T06:13:00;98251.63;;;14.00;64.19
58668;BME280;59852;43.086;25.634;2023-04-15T06:15:26;98251.38;;;14.30;63.42
58668;BME280;59852;43.086;25.634;2023-04-15T06:17:51;98257.72;;;14.38;62.00
58668;BME280;59852;43.086;25.634;2023-04-15T06:20:16;98253.66;;;14.43;62.25
58668;BME280;59852;43.086;25.634;2023-04-15T06:22:42;98265.75;;;13.99;62.90
58668;BME280;59852;43.086;25.634;2023-04-15T06:25:07;98269.09;;;13.82;61.25
58668;BME280;59852;43.086;25.634;2023-04-15T06:27:33;98276.81;;;14.40;61.40
58668;BME280;59852;43.086;25.634;2023-04-15T06:29:58;98290.97;;;14.76;60.18
58668;BME280;59852;43.086;25.634;2023-04-15T06:32:24;98293.72;;;14.74;58.66
58668;BME280;59852;43.086;25.634;2023-04-15T06:34:49;98290.31;;;14.64;50.99
58668;BME280;59852;43.086;25.634;2023-04-15T06:37:15;98288.09;;;14.69;49.24
58668;BME280;59852;43.086;25.634;2023-04-15T06:39:40;98289.38;;;14.65;48.98
58668;BME280;59852;43.086;25.634;2023-04-15T06:42:06;98294.22;;;14.60;47.82
58668;BME280;59852;43.086;25.634;2023-04-15T06:44:32;98291.28;;;14.90;45.95
58668;BME280;59852;43.086;25.634;2023-04-15T06:46:57;98296.06;;;15.05;45.57
58668;BME280;59852;43.086;25.634;2023-04-15T06:49:22;98299.69;;;14.76;44.66
58668;BME280;59852;43.086;25.634;2023-04-15T06:51:48;98305.22;;;14.73;45.48
58668;BME280;59852;43.086;25.634;2023-04-15T06:54:13;98299.03;;;14.92;46.59
58668;BME280;59852;43.086;25.634;2023-04-15T06:56:38;98312.53;;;15.07;48.42
58668;BME280;59852;43.086;25.634;2023-04-15T06:59:04;98309.75;;;15.08;48.00
58668;BME280;59852;43.086;25.634;2023-04-15T07:01:30;98318.91;;;15.04;46.95
58668;BME280;59852;43.086;25.634;2023-04-15T07:03:55;98306.53;;;15.32;45.77
58668;BME280;59852;43.086;25.634;2023-04-15T07:06:21;98316.38;;;15.12;44.64
58668;BME280;59852;43.086;25.634;2023-04-15T07:08:46;98310.97;;;15.32;45.30
58668;BME280;59852;43.086;25.634;2023-04-15T07:11:11;98308.97;;;15.26;44.68
58668;BME280;59852;43.086;25.634;2023-04-15T07:13:37;98319.78;;;15.40;45.67
58668;BME280;59852;43.086;25.634;2023-04-15T07:16:02;98310.84;;;15.51;44.50
58668;BME280;59852;43.086;25.634;2023-04-15T07:18:28;98312.50;;;15.70;44.60
58668;BME280;59852;43.086;25.634;2023-04-15T07:20:53;98309.63;;;15.81;45.63
58668;BME280;59852;43.086;25.634;2023-04-15T07:23:19;98316.53;;;16.00;44.61
58668;BME280;59852;43.086;25.634;2023-04-15T07:25:45;98318.50;;;15.98;44.27
58668;BME280;59852;43.086;25.634;2023-04-15T07:28:11;98315.00;;;16.15;42.01
58668;BME280;59852;43.086;25.634;2023-04-15T07:30:36;98326.59;;;16.22;42.65
58668;BME280;59852;43.086;25.634;2023-04-15T07:33:02;98317.69;;;15.97;42.25
58668;BME280;59852;43.086;25.634;2023-04-15T07:35:27;98318.44;;;16.33;39.98
58668;BME280;59852;43.086;25.634;2023-04-15T07:37:53;98322.38;;;15.86;41.22
58668;BME280;59852;43.086;25.634;2023-04-15T07:40:18;98324.16;;;16.03;42.14
58668;BME280;59852;43.086;25.634;2023-04-15T07:42:44;98331.13;;;16.64;38.48
58668;BME280;59852;43.086;25.634;2023-04-15T07:45:09;98336.97;;;16.76;40.93
58668;BME280;59852;43.086;25.634;2023-04-15T07:47:35;98336.69;;;16.87;39.49
58668;BME280;59852;43.086;25.634;2023-04-15T07:50:00;98334.81;;;17.13;39.26
58668;BME280;59852;43.086;25.634;2023-04-15T07:52:26;98333.78;;;16.98;38.21
58668;BME280;59852;43.086;25.634;2023-04-15T07:54:51;98337.09;;;17.08;39.62
58668;BME280;59852;43.086;25.634;2023-04-15T07:57:17;98335.13;;;17.10;36.91
58668;BME280;59852;43.086;25.634;2023-04-15T07:59:42;98347.56;;;17.26;36.47
58668;BME280;59852;43.086;25.634;2023-04-15T08:02:08;98337.94;;;17.09;35.54
58668;BME280;59852;43.086;25.634;2023-04-15T08:04:33;98330.56;;;17.37;35.46
58668;BME280;59852;43.086;25.634;2023-04-15T08:06:59;98340.38;;;17.53;37.39
58668;BME280;59852;43.086;25.634;2023-04-15T08:09:24;98342.50;;;17.65;35.80
58668;BME280;59852;43.086;25.634;2023-04-15T08:11:51;98340.22;;;17.62;38.45
58668;BME280;59852;43.086;25.634;2023-04-15T08:14:16;98335.56;;;17.64;35.70
58668;BME280;59852;43.086;25.634;2023-04-15T08:16:42;98342.72;;;17.72;35.96
58668;BME280;59852;43.086;25.634;2023-04-15T08:19:07;98338.09;;;17.74;36.00
58668;BME280;59852;43.086;25.634;2023-04-15T08:21:33;98342.00;;;17.54;35.20
58668;BME280;59852;43.086;25.634;2023-04-15T08:23:58;98342.84;;;17.54;35.46
58668;BME280;59852;43.086;25.634;2023-04-15T08:26:24;98348.84;;;17.89;36.84
58668;BME280;59852;43.086;25.634;2023-04-15T08:28:49;98352.91;;;17.59;36.86
58668;BME280;59852;43.086;25.634;2023-04-15T08:31:15;98351.31;;;17.98;36.88
58668;BME280;59852;43.086;25.634;2023-04-15T08:33:41;98359.44;;;18.05;36.02
58668;BME280;59852;43.086;25.634;2023-04-15T08:36:07;98353.47;;;18.19;36.74
58668;BME280;59852;43.086;25.634;2023-04-15T08:38:32;98350.97;;;18.42;38.69
58668;BME280;59852;43.086;25.634;2023-04-15T08:40:59;98351.78;;;18.26;36.64
58668;BME280;59852;43.086;25.634;2023-04-15T08:43:27;98354.31;;;17.95;36.90
58668;BME280;59852;43.086;25.634;2023-04-15T08:45:57;98355.81;;;17.90;37.74
58668;BME280;59852;43.086;25.634;2023-04-15T08:48:26;98352.63;;;18.27;37.49
58668;BME280;59852;43.086;25.634;2023-04-15T08:50:52;98352.31;;;18.22;37.11
58668;BME280;59852;43.086;25.634;2023-04-15T08:53:18;98353.31;;;17.80;37.00
58668;BME280;59852;43.086;25.634;2023-04-15T08:55:44;98350.50;;;17.98;36.37
58668;BME280;59852;43.086;25.634;2023-04-15T08:58:10;98354.53;;;18.57;37.53
58668;BME280;59852;43.086;25.634;2023-04-15T09:00:36;98343.31;;;18.47;35.79
58668;BME280;59852;43.086;25.634;2023-04-15T09:03:05;98348.25;;;18.67;36.62
58668;BME280;59852;43.086;25.634;2023-04-15T09:05:32;98348.78;;;18.38;36.86
58668;BME280;59852;43.086;25.634;2023-04-15T09:07:57;98338.38;;;18.44;38.69
58668;BME280;59852;43.086;25.634;2023-04-15T09:10:23;98348.41;;;18.73;35.93
58668;BME280;59852;43.086;25.634;2023-04-15T09:12:48;98347.78;;;18.47;36.16
58668;BME280;59852;43.086;25.634;2023-04-15T09:15:13;98342.94;;;18.75;36.48
58668;BME280;59852;43.086;25.634;2023-04-15T09:17:43;98340.66;;;18.47;35.05
58668;BME280;59852;43.086;25.634;2023-04-15T09:20:10;98341.47;;;18.72;35.68
58668;BME280;59852;43.086;25.634;2023-04-15T09:22:37;98334.13;;;18.90;37.13
58668;BME280;59852;43.086;25.634;2023-04-15T09:25:03;98343.78;;;18.75;36.55
58668;BME280;59852;43.086;25.634;2023-04-15T09:27:28;98341.97;;;19.07;36.54
58668;BME280;59852;43.086;25.634;2023-04-15T09:29:54;98336.38;;;19.02;36.01
58668;BME280;59852;43.086;25.634;2023-04-15T09:32:20;98331.91;;;19.02;35.75
58668;BME280;59852;43.086;25.634;2023-04-15T09:34:47;98330.44;;;19.00;38.13
58668;BME280;59852;43.086;25.634;2023-04-15T09:37:13;98331.03;;;18.62;36.39
58668;BME280;59852;43.086;25.634;2023-04-15T09:39:52;98335.72;;;19.08;34.95
58668;BME280;59852;43.086;25.634;2023-04-15T09:42:18;98322.81;;;18.97;35.57
58668;BME280;59852;43.086;25.634;2023-04-15T09:44:49;98329.25;;;19.33;37.71
58668;BME280;59852;43.086;25.634;2023-04-15T09:47:27;98335.34;;;19.42;35.57
58668;BME280;59852;43.086;25.634;2023-04-15T09:49:56;98335.91;;;19.29;36.37
58668;BME280;59852;43.086;25.634;2023-04-15T09:52:22;98320.66;;;19.00;34.86
58668;BME280;59852;43.086;25.634;2023-04-15T09:54:48;98326.00;;;18.92;35.16
58668;BME280;59852;43.086;25.634;2023-04-15T09:57:16;98322.78;;;18.66;34.62
58668;BME280;59852;43.086;25.634;2023-04-15T09:59:42;98318.28;;;18.74;35.62
58668;BME280;59852;43.086;25.634;2023-04-15T10:02:07;98317.19;;;18.44;36.34
58668;BME280;59852;43.086;25.634;2023-04-15T10:04:34;98324.84;;;18.86;34.96
58668;BME280;59852;43.086;25.634;2023-04-15T10:07:01;98311.03;;;18.52;36.43
58668;BME280;59852;43.086;25.634;2023-04-15T10:09:27;98308.94;;;19.57;41.41
58668;BME280;59852;43.086;25.634;2023-04-15T10:11:54;98293.31;;;20.14;37.09
58668;BME280;59852;43.086;25.634;2023-04-15T10:14:20;98295.22;;;19.14;37.83
58668;BME280;59852;43.086;25.634;2023-04-15T10:16:45;98303.66;;;20.09;36.44
58668;BME280;59852;43.086;25.634;2023-04-15T10:19:13;98296.03;;;19.91;35.67
58668;BME280;59852;43.086;25.634;2023-04-15T10:21:40;98302.03;;;19.39;36.31
58668;BME280;59852;43.086;25.634;2023-04-15T10:24:05;98311.69;;;19.32;35.93
58668;BME280;59852;43.086;25.634;2023-04-15T10:26:31;98300.66;;;19.74;37.57
58668;BME280;59852;43.086;25.634;2023-04-15T10:28:57;98311.38;;;18.96;37.93
58668;BME280;59852;43.086;25.634;2023-04-15T10:31:23;98309.34;;;20.06;37.63
58668;BME280;59852;43.086;25.634;2023-04-15T10:33:48;98312.31;;;20.26;36.49
58668;BME280;59852;43.086;25.634;2023-04-15T10:36:14;98322.78;;;19.05;36.96
58668;BME280;59852;43.086;25.634;2023-04-15T10:38:41;98311.16;;;20.05;36.15
58668;BME280;59852;43.086;25.634;2023-04-15T10:41:20;98307.69;;;19.67;36.27
58668;BME280;59852;43.086;25.634;2023-04-15T10:46:57;98306.97;;;19.73;36.72
58668;BME280;59852;43.086;25.634;2023-04-15T10:49:07;98308.13;;;20.61;35.53
58668;BME280;59852;43.086;25.634;2023-04-15T10:51:36;98304.81;;;19.92;36.33
58668;BME280;59852;43.086;25.634;2023-04-15T10:54:06;98303.91;;;19.62;37.28
58668;BME280;59852;43.086;25.634;2023-04-15T10:56:33;98307.03;;;18.64;36.28
58668;BME280;59852;43.086;25.634;2023-04-15T10:58:58;98297.66;;;18.45;36.33
58668;BME280;59852;43.086;25.634;2023-04-15T11:01:48;98298.53;;;18.29;37.25
58668;BME280;59852;43.086;25.634;2023-04-15T11:04:10;98304.50;;;19.18;36.30
58668;BME280;59852;43.086;25.634;2023-04-15T11:06:42;98290.44;;;19.86;35.98
58668;BME280;59852;43.086;25.634;2023-04-15T11:09:11;98297.41;;;19.87;35.13
58668;BME280;59852;43.086;25.634;2023-04-15T11:12:03;98296.78;;;20.15;34.53
58668;BME280;59852;43.086;25.634;2023-04-15T11:14:29;98291.16;;;20.18;34.66
58668;BME280;59852;43.086;25.634;2023-04-15T11:16:56;98291.50;;;20.15;35.19
58668;BME280;59852;43.086;25.634;2023-04-15T11:19:22;98303.16;;;19.45;36.42
58668;BME280;59852;43.086;25.634;2023-04-15T11:21:47;98300.59;;;19.60;36.36
58668;BME280;59852;43.086;25.634;2023-04-15T11:24:22;98297.47;;;19.79;36.20
58668;BME280;59852;43.086;25.634;2023-04-15T11:26:50;98291.34;;;20.31;35.10
58668;BME280;59852;43.086;25.634;2023-04-15T11:29:21;98280.75;;;20.60;35.13
58668;BME280;59852;43.086;25.634;2023-04-15T11:31:47;98280.66;;;20.54;35.29
58668;BME280;59852;43.086;25.634;2023-04-15T11:34:21;98284.69;;;20.50;35.93
58668;BME280;59852;43.086;25.634;2023-04-15T11:36:46;98280.34;;;20.34;35.45
58668;BME280;59852;43.086;25.634;2023-04-15T11:39:12;98275.03;;;20.78;35.11
58668;BME280;59852;43.086;25.634;2023-04-15T11:41:37;98272.03;;;20.52;35.49
58668;BME280;59852;43.086;25.634;2023-04-15T11:44:15;98275.13;;;20.41;35.92
58668;BME280;59852;43.086;25.634;2023-04-15T11:46:40;98278.31;;;20.07;35.21
58668;BME280;59852;43.086;25.634;2023-04-15T11:49:05;98272.22;;;19.83;34.84
58668;BME280;59852;43.086;25.634;2023-04-15T11:51:31;98266.66;;;19.93;34.97
58668;BME280;59852;43.086;25.634;2023-04-15T11:53:58;98267.03;;;19.44;33.85
58668;BME280;59852;43.086;25.634;2023-04-15T11:56:23;98270.25;;;20.00;33.40
58668;BME280;59852;43.086;25.634;2023-04-15T11:58:53;98265.94;;;19.99;33.79
58668;BME280;59852;43.086;25.634;2023-04-15T12:01:20;98263.25;;;20.51;33.24
58668;BME280;59852;43.086;25.634;2023-04-15T12:03:54;98265.09;;;20.66;32.57
58668;BME280;59852;43.086;25.634;2023-04-15T12:06:24;98260.25;;;19.87;32.90
58668;BME280;59852;43.086;25.634;2023-04-15T12:09:09;98249.88;;;19.77;32.88
58668;BME280;59852;43.086;25.634;2023-04-15T12:11:38;98243.91;;;20.57;33.21
58668;BME280;59852;43.086;25.634;2023-04-15T12:14:08;98240.94;;;20.82;32.11
58668;BME280;59852;43.086;25.634;2023-04-15T12:16:34;98243.63;;;20.38;32.52
58668;BME280;59852;43.086;25.634;2023-04-15T12:19:03;98244.00;;;20.20;34.03
58668;BME280;59852;43.086;25.634;2023-04-15T12:21:32;98249.13;;;20.21;33.01
58668;BME280;59852;43.086;25.634;2023-04-15T12:24:02;98246.91;;;20.69;33.54
58668;BME280;59852;43.086;25.634;2023-04-15T12:26:33;98240.09;;;20.45;34.12
58668;BME280;59852;43.086;25.634;2023-04-15T12:29:05;98245.47;;;20.37;34.96
58668;BME280;59852;43.086;25.634;2023-04-15T12:31:32;98234.84;;;19.70;34.45
58668;BME280;59852;43.086;25.634;2023-04-15T12:33:59;98238.75;;;19.97;33.51
58668;BME280;59852;43.086;25.634;2023-04-15T12:36:25;98232.81;;;20.54;33.67
58668;BME280;59852;43.086;25.634;2023-04-15T12:38:51;98229.38;;;20.89;33.42
58668;BME280;59852;43.086;25.634;2023-04-15T12:41:16;98225.88;;;20.53;33.09
58668;BME280;59852;43.086;25.634;2023-04-15T12:43:44;98229.91;;;20.49;33.68
58668;BME280;59852;43.086;25.634;2023-04-15T12:46:11;98225.66;;;21.05;32.93
58668;BME280;59852;43.086;25.634;2023-04-15T12:48:37;98237.53;;;20.88;33.51